Flight Track Log - Related Links

Times and Time Zones

All times are in EDT time to prevent confusion due to time zone crossing. See the UAL906 flight status page for this flight to view local times or setup timezone preferences in your user account.

Time Position Orientation Groundspeed Altitude Reporting Facility
EDT Latitude Longitude Course Direction KTS MPH feet Rate Location/Type
Thu 08:00:59 AM 50.0270 8.5110 258° West 179 206 1,700  Level FlightAware ADS-B
Thu 08:01:30 AM 50.0290 8.4680 274° West 188 216 2,700 1,765 Climbing FlightAware ADS-B
Thu 08:02:07 AM 50.0280 8.4170 268° West 196 226 3,700 1,241 Climbing FlightAware ADS-B
Thu 08:02:28 AM 50.0240 8.3900 257° West 215 247 3,900 1,043 Climbing FlightAware ADS-B
Thu 08:02:53 AM 50.0190 8.3460 260° West 241 277 4,500 1,385 Climbing FlightAware ADS-B
Thu 08:03:07 AM 50.0150 8.3190 257° West 256 295 4,800 1,263 Climbing FlightAware ADS-B
Thu 08:03:50 AM 50.0220 8.2440 278° West 297 342 5,700 1,481 Climbing FlightAware ADS-B
Thu 08:04:28 AM 50.0490 8.1620 297° West 327 376 6,800 1,913 Climbing FlightAware ADS-B
Thu 08:04:59 AM 50.0830 8.1110 316° Northwest 341 392 7,900 2,032 Climbing FlightAware ADS-B
Thu 08:05:30 AM 50.1240 8.0680 326° Northwest 353 406 8,900 2,073 Climbing FlightAware ADS-B
Thu 08:05:54 AM 50.1570 8.0300 324° Northwest 361 415 9,800 2,174 Climbing FlightAware ADS-B
Thu 08:06:39 AM 50.2190 7.9600 324° Northwest 371 427 11,400 1,875 Climbing FlightAware ADS-B
Thu 08:07:14 AM 50.2690 7.9040 324° Northwest 378 435 12,300 1,725 Climbing FlightAware ADS-B
Thu 08:07:59 AM 50.3340 7.8320 325° Northwest 395 455 13,700 1,753 Climbing FlightAware ADS-B
Thu 08:08:43 AM 50.3950 7.7620 324° Northwest 399 459 14,900 1,663 Climbing FlightAware ADS-B
Thu 08:09:22 AM 50.4480 7.7020 324° Northwest 402 463 16,000 1,944 Climbing FlightAware ADS-B
Thu 08:09:54 AM 50.5100 7.6320 324° Northwest 405 466 17,200 1,793 Climbing FlightAware ADS-B
Thu 08:10:49 AM 50.5950 7.5360 324° Northwest 422 486 18,600 1,722 Climbing FlightAware ADS-B
Thu 08:11:49 AM 50.6870 7.4300 324° Northwest 437 503 20,500 2,040 Climbing FlightAware ADS-B
Thu 08:12:29 AM 50.7620 7.3450 324° Northwest 441 507 22,000 2,175 Climbing FlightAware ADS-B
Thu 08:13:09 AM 50.8260 7.2720 324° Northwest 436 502 23,400 1,976 Climbing FlightAware ADS-B
Thu 08:13:54 AM 50.8990 7.1870 324° Northwest 426 490 24,800 1,341 Climbing FlightAware ADS-B
Thu 08:14:34 AM 50.9620 7.1120 323° Northwest 439 505 25,300 518 Climbing FlightAware ADS-B
Thu 08:16:13 AM 51.0640 6.9620 317° Northwest 457 526 26,000 771 Climbing FlightAware ADS-B
Thu 08:16:54 AM 51.1700 6.7730 312° West 463 533 27,100 1,271 Climbing FlightAware ADS-B
Thu 08:17:38 AM 51.2270 6.6560 308° West 468 539 27,800 795 Climbing FlightAware ADS-B
Thu 08:18:17 AM 51.2730 6.5600 307° West 473 544 28,200 779 Climbing FlightAware ADS-B
Thu 08:18:55 AM 51.3320 6.4380 308° West 479 551 28,800 929 Climbing FlightAware ADS-B
Thu 08:19:41 AM 51.3930 6.3110 308° West 484 557 29,500 848 Climbing FlightAware ADS-B
Thu 08:20:27 AM 51.4610 6.1880 312° West 496 571 30,100 500 Climbing FlightAware ADS-B
Thu 08:21:05 AM 51.4730 6.1670 313° West 496 571 30,200 1,301 Climbing FlightAware ADS-B
Thu 08:21:50 AM 51.5900 5.9630 313° West 487 560 31,900 1,271 Climbing FlightAware ADS-B
Thu 08:22:30 AM 51.6500 5.8570 312° West 488 562 32,000 77 Climbing FlightAware ADS-B
Thu 08:23:08 AM 51.7090 5.7550 313° West 488 562 32,000  Level FlightAware ADS-B
Thu 08:23:38 AM 51.7379 5.6596 313° West 494 568 32,000  Level FlightAware UK
Thu 08:23:56 AM 51.7830 5.6280 313° West 488 562 32,000  Level FlightAware ADS-B
Thu 08:24:26 AM 51.8288 5.5492 313° West 492 566 32,000  Level FlightAware UK
Thu 08:24:38 AM 51.8480 5.5170 313° West 487 560 32,000 -200 Level FlightAware ADS-B
Thu 08:24:56 AM 51.8778 5.4708 313° West 492 566 31,900 -125 Descending FlightAware UK
Thu 08:25:26 AM 51.9222 5.3896 312° West 492 566 31,900 167 Level FlightAware UK
Thu 08:25:32 AM 51.9310 5.3740 312° West 486 559 32,000  Climbing FlightAware ADS-B
Thu 08:26:02 AM 51.9778 5.2942 312° West 492 566 31,900  Descending FlightAware UK
Thu 08:26:10 AM 51.9880 5.2760 312° West 485 558 32,000  Climbing FlightAware ADS-B
Thu 08:26:32 AM 52.0234 5.2144 312° West 490 564 31,900  Descending FlightAware UK
Thu 08:26:58 AM 52.0640 5.1470 312° West 485 558 32,000 636 Climbing FlightAware ADS-B
Thu 08:27:38 AM 52.1240 5.0430 313° West 486 559 32,600 951 Climbing FlightAware ADS-B
Thu 08:28:20 AM 52.1890 4.9330 314° West 485 558 33,300 977 Climbing FlightAware ADS-B
Thu 08:29:04 AM 52.2570 4.8200 315° West 482 555 34,000 512 Climbing FlightAware ADS-B
Thu 08:29:42 AM 52.3210 4.7210 315° West 491 565 34,000  Level FlightAware ADS-B
Thu 08:29:44 AM 52.3243 4.7136 315° West 484 557 34,000 -188 Level FlightAware UK
Thu 08:30:14 AM 52.3777 4.6446 315° West 486 559 33,900 -78 Descending FlightAware UK
Thu 08:31:01 AM 52.4640 4.5363 323° Northwest 484 557 33,900 118 Level FlightAware UK
Thu 08:31:05 AM 52.4330 4.5750 323° Northwest 492 566 34,000 118 Climbing FlightAware ADS-B
Thu 08:31:52 AM 52.5500 4.4160 320° Northwest 491 565 34,000  Level FlightAware ADS-B
Thu 08:32:32 AM 52.6170 4.3230 320° Northwest 493 567 34,000  Level FlightAware ADS-B
Thu 08:33:14 AM 52.6910 4.2200 320° Northwest 495 570 34,000  Level FlightAware ADS-B
Thu 08:33:56 AM 52.7650 4.1160 320° Northwest 496 571 34,000  Level FlightAware ADS-B
Thu 08:34:37 AM 52.8380 4.0130 320° Northwest 496 571 34,000  Level FlightAware ADS-B
Thu 08:35:07 AM 52.8912 3.9390 320° Northwest 488 562 34,000  Level FlightAware UK
Thu 08:35:17 AM 52.9040 3.9200 320° Northwest 490 564 34,000  Level FlightAware ADS-B
Thu 08:35:49 AM 52.9645 3.8359 320° Northwest 486 559 34,000  Level FlightAware UK
Thu 08:36:17 AM 52.9450 3.8620 320° Northwest 496 571 34,000  Level FlightAware ADS-B
Thu 08:37:01 AM 53.0870 3.6610 320° Northwest 497 572 34,000  Level FlightAware ADS-B
Thu 08:37:39 AM 53.1530 3.5670 320° Northwest 498 573 34,000  Level FlightAware ADS-B
Thu 08:37:55 AM 53.1841 3.5236 320° Northwest 482 555 34,000  Level FlightAware UK
Thu 08:38:24 AM 53.2360 3.4540 320° Northwest 510 587 34,000  Level FlightAware ADS-B
Thu 08:39:20 AM 53.3540 3.3670 336° Northwest 524 603 34,000  Level FlightAware ADS-B
Thu 08:39:57 AM 53.4330 3.2960 332° Northwest 502 578 34,000 -92 Level FlightAware ADS-B
Thu 08:40:25 AM 53.4878 3.2206 332° Northwest 484 557 33,900  Descending FlightAware UK
Thu 08:40:55 AM 53.5322 3.1380 312° West 490 564 34,000 130 Climbing FlightAware UK
Thu 08:41:11 AM 53.5540 3.0990 312° West 482 555 34,000  Level FlightAware ADS-B
Thu 08:41:51 AM 53.6070 2.9860 308° West 463 533 34,000 -65 Level FlightAware ADS-B
Thu 08:42:43 AM 53.6770 2.8264 308° West 478 550 33,900  Descending FlightAware UK
Thu 08:42:47 AM 53.6790 2.8210 308° West 469 540 34,000  Climbing FlightAware ADS-B
Thu 08:43:13 AM 53.7156 2.7383 308° West 482 555 33,900  Descending FlightAware UK
Thu 08:43:27 AM 53.7330 2.7100 318° Northwest 490 564 34,000  Climbing FlightAware ADS-B
Thu 08:43:31 AM 53.7459 2.6924 318° Northwest 484 557 33,900 -176 Descending FlightAware UK
Thu 08:44:01 AM 53.7881 2.6059 318° Northwest 486 559 33,900 140 Level FlightAware UK
Thu 08:44:14 AM 53.8030 2.5700 318° Northwest 471 542 34,000  Climbing FlightAware ADS-B
Thu 08:44:31 AM 53.8267 2.5175 318° Northwest 482 555 33,900  Descending FlightAware UK
Thu 08:44:54 AM 53.8550 2.4530 318° Northwest 473 544 34,000 94 Climbing FlightAware ADS-B
Thu 08:45:35 AM 53.8920 2.3680 318° Northwest 469 540 34,000 -140 Level FlightAware ADS-B
Thu 08:45:37 AM 53.9127 2.3224 318° Northwest 486 559 33,900  Descending FlightAware UK
Thu 08:46:07 AM 53.9573 2.2372 318° Northwest 488 562 34,000 140 Climbing FlightAware UK
Thu 08:46:20 AM 53.9750 2.2040 318° Northwest 483 556 34,000  Level FlightAware ADS-B
Thu 08:46:37 AM 54.0021 2.1522 318° Northwest 486 559 34,000  Level FlightAware UK
Thu 08:47:00 AM 54.0280 2.1010 318° Northwest 483 556 34,000  Level FlightAware ADS-B
Thu 08:47:43 AM 54.0990 1.9660 312° West 483 556 34,000  Level FlightAware ADS-B
Thu 08:48:13 AM 54.1435 1.8807 312° West 486 559 34,000  Level FlightAware UK
Thu 08:48:25 AM 54.1610 1.8470 312° West 482 555 34,000 -167 Level FlightAware ADS-B
Thu 08:48:49 AM 54.1963 1.7780 312° West 484 557 33,900  Descending FlightAware UK
Thu 08:49:05 AM 54.2190 1.7330 312° West 481 554 34,000  Climbing FlightAware ADS-B
Thu 08:49:24 AM 54.2487 1.6758 312° West 484 557 33,900  Descending FlightAware UK
Thu 08:49:52 AM 54.2880 1.5990 312° West 481 554 34,000 140 Climbing FlightAware ADS-B
Thu 08:50:07 AM 54.3104 1.5552 312° West 482 555 34,000  Level FlightAware UK
Thu 08:50:25 AM 54.3360 1.5060 312° West 482 555 34,000  Level FlightAware ADS-B
Thu 08:51:12 AM 54.4030 1.3720 311° West 484 557 34,000 -92 Level FlightAware ADS-B
Thu 08:51:30 AM 54.4329 1.3137 311° West 484 557 33,900  Descending FlightAware UK
Thu 08:51:51 AM 54.4620 1.2560 311° West 484 557 34,000  Climbing FlightAware ADS-B
Thu 08:52:18 AM 54.5030 1.1749 311° West 482 555 33,900  Descending FlightAware UK
Thu 08:52:32 AM 54.5170 1.1470 311° West 484 557 34,000  Climbing FlightAware ADS-B
Thu 08:52:54 AM 54.5557 1.0698 311° West 482 555 33,900  Descending FlightAware UK
Thu 08:53:17 AM 54.5870 1.0080 311° West 487 560 34,000  Climbing FlightAware ADS-B
Thu 08:53:42 AM 54.6258 0.9285 311° West 484 557 33,900  Descending FlightAware UK
Thu 08:53:57 AM 54.6460 0.8880 311° West 487 560 34,000 133 Climbing FlightAware ADS-B
Thu 08:54:27 AM 54.6870 0.8060 311° West 487 560 34,000 -80 Level FlightAware ADS-B
Thu 08:55:12 AM 54.7567 0.6635 311° West 486 559 33,900  Descending FlightAware UK
Thu 08:55:27 AM 54.7790 0.6190 311° West 488 562 34,000 83 Climbing FlightAware ADS-B
Thu 08:56:24 AM 54.8580 0.4570 310° West 491 565 34,000  Level FlightAware ADS-B
Thu 08:57:06 AM 54.9235 0.3226 310° West 486 559 34,000  Level FlightAware UK
Thu 08:57:06 AM 54.9230 0.3250 310° West 491 565 34,000  Level FlightAware ADS-B
Thu 08:57:46 AM 54.9800 0.2070 310° West 491 565 34,000 -83 Level FlightAware ADS-B
Thu 08:58:18 AM 55.0285 0.1057 310° West 486 559 33,900  Descending FlightAware UK
Thu 08:58:27 AM 55.0410 0.0790 310° West 493 567 34,000 118 Climbing FlightAware ADS-B
Thu 08:59:09 AM 55.1020 -0.0490 310° West 495 570 34,000  Level FlightAware ADS-B
Thu 08:59:53 AM 55.1670 -0.1840 310° West 495 570 34,000  Level FlightAware ADS-B
Thu 09:00:35 AM 55.2120 -0.2780 310° West 494 568 34,000  Level FlightAware ADS-B
Thu 09:01:13 AM 55.2840 -0.4320 309° West 494 568 34,000 -77 Level FlightAware ADS-B
Thu 09:01:53 AM 55.3425 -0.5561 309° West 492 566 33,900  Descending FlightAware UK
Thu 09:02:00 AM 55.3520 -0.5750 309° West 492 566 34,000  Climbing FlightAware ADS-B
Thu 09:02:23 AM 55.3856 -0.6488 309° West 492 566 33,900  Descending FlightAware UK
Thu 09:02:40 AM 55.4080 -0.6980 309° West 492 566 34,000  Climbing FlightAware ADS-B
Thu 09:03:05 AM 55.4460 -0.7782 309° West 492 566 33,900  Descending FlightAware UK
Thu 09:03:22 AM 55.4680 -0.8260 309° West 491 565 34,000 125 Climbing FlightAware ADS-B
Thu 09:03:53 AM 55.5146 -0.9270 309° West 490 564 34,000  Level FlightAware UK
Thu 09:04:01 AM 55.5240 -0.9480 309° West 491 565 34,000 -200 Level FlightAware ADS-B
Thu 09:04:23 AM 55.5575 -1.0202 309° West 492 566 33,900  Descending FlightAware UK
Thu 09:04:46 AM 55.5890 -1.0890 309° West 491 565 34,000 143 Climbing FlightAware ADS-B
Thu 09:05:05 AM 55.6170 -1.1497 309° West 494 568 34,000  Level FlightAware UK
Thu 09:05:28 AM 55.6460 -1.2130 309° West 491 565 34,000 -111 Level FlightAware ADS-B
Thu 09:05:59 AM 55.6941 -1.3191 309° West 492 566 33,900  Descending FlightAware UK
Thu 09:06:10 AM 55.7070 -1.3470 309° West 490 564 34,000  Climbing FlightAware ADS-B
Thu 09:06:35 AM 55.7447 -1.4310 309° West 492 566 33,900  Descending FlightAware UK
Thu 09:06:45 AM 55.7560 -1.4570 309° West 488 562 34,000  Climbing FlightAware ADS-B
Thu 09:07:05 AM 55.7869 -1.5248 309° West 488 562 33,900  Descending FlightAware UK
Thu 09:07:30 AM 55.8200 -1.5990 309° West 489 563 34,000  Climbing FlightAware ADS-B
Thu 09:07:35 AM 55.8291 -1.6187 309° West 488 562 33,900 -171 Descending FlightAware UK
Thu 09:08:05 AM 55.8713 -1.7127 309° West 490 564 33,900 150 Level FlightAware UK
Thu 09:08:15 AM 55.8820 -1.7380 309° West 489 563 34,000  Climbing FlightAware ADS-B
Thu 09:08:52 AM 55.9382 -1.8635 309° West 490 564 33,900  Descending FlightAware UK
Thu 09:08:55 AM 55.9390 -1.8660 309° West 489 563 34,000 125 Climbing FlightAware ADS-B
Thu 09:09:40 AM 56.0020 -2.0080 308° West 489 563 34,000 -74 Level FlightAware ADS-B
Thu 09:10:16 AM 56.0554 -2.1287 308° West 486 559 33,900  Descending FlightAware UK
Thu 09:11:04 AM 56.1120 -2.2580 308° West 490 564 34,000 77 Climbing FlightAware ADS-B
Thu 09:11:34 AM 56.1637 -2.3772 308° West 490 564 34,000  Level FlightAware UK
Thu 09:11:48 AM 56.1820 -2.4200 308° West 491 565 34,000  Level FlightAware ADS-B
Thu 09:12:04 AM 56.2053 -2.4735 308° West 488 562 34,000 146 Level FlightAware UK
Thu 09:12:29 AM 56.2340 -2.5400 308° West 492 566 34,100 545 Climbing FlightAware ADS-B
Thu 09:13:10 AM 56.2967 -2.6853 308° West 488 562 34,600 732 Climbing FlightAware UK
Thu 09:13:10 AM 56.2910 -2.6720 308° West 492 566 34,600 600 Level FlightAware ADS-B
Thu 09:13:40 AM 56.3383 -2.7825 308° West 492 566 34,900 686 Climbing FlightAware UK
Thu 09:13:45 AM 56.3440 -2.7970 308° West 492 566 35,000 107 Climbing FlightAware ADS-B
Thu 09:14:36 AM 56.4110 -2.9530 308° West 490 564 35,000  Level FlightAware ADS-B
Thu 09:15:17 AM 56.4700 -3.0940 307° West 484 557 35,000  Level FlightAware ADS-B
Thu 09:15:59 AM 56.5260 -3.2250 308° West 484 557 35,000  Level FlightAware ADS-B
Thu 09:16:37 AM 56.5760 -3.3460 307° West 485 558 35,000  Level FlightAware ADS-B
Thu 09:17:17 AM 56.6350 -3.4890 307° West 485 558 35,000  Level FlightAware ADS-B
Thu 09:17:59 AM 56.6850 -3.6090 307° West 485 558 35,000  Level FlightAware ADS-B
Thu 09:18:27 AM 56.7312 -3.7208 307° West 490 564 35,000  Level FlightAware UK
Thu 09:18:44 AM 56.7410 -3.7460 307° West 490 564 35,000  Level FlightAware ADS-B
Thu 09:19:09 AM 56.7879 -3.8590 307° West 492 566 35,000  Level FlightAware UK
Thu 09:19:27 AM 56.8110 -3.9160 307° West 491 565 35,000  Level FlightAware ADS-B
Thu 09:20:12 AM 56.8720 -4.0650 307° West 491 565 35,000  Level FlightAware ADS-B
Thu 09:20:45 AM 56.9173 -4.1781 307° West 488 562 35,000  Level FlightAware UK
Thu 09:20:45 AM 56.9150 -4.1720 307° West 491 565 35,000 -167 Level FlightAware ADS-B
Thu 09:21:21 AM 56.9656 -4.2982 307° West 488 562 34,900  Descending FlightAware UK
Thu 09:21:35 AM 56.9810 -4.3380 307° West 490 564 35,000 200 Climbing FlightAware ADS-B
Thu 09:21:51 AM 57.0057 -4.3984 307° West 490 564 35,000  Level FlightAware UK
Thu 09:22:15 AM 57.0350 -4.4720 307° West 491 565 35,000  Level FlightAware ADS-B
Thu 09:22:56 AM 57.0850 -4.5980 307° West 491 565 35,000  Level FlightAware ADS-B
Thu 09:22:57 AM 57.0937 -4.6193 307° West 492 566 35,000  Level FlightAware UK
Thu 09:23:33 AM 57.1416 -4.7410 307° West 492 566 35,000  Level FlightAware UK
Thu 09:23:37 AM 57.1450 -4.7510 307° West 491 565 35,000  Level FlightAware ADS-B
Thu 09:24:03 AM 57.1813 -4.8425 307° West 492 566 35,000  Level FlightAware UK
Thu 09:24:17 AM 57.1960 -4.8790 307° West 489 563 35,000  Level FlightAware ADS-B
Thu 09:24:33 AM 57.2210 -4.9439 307° West 490 564 35,000  Level FlightAware UK
Thu 09:25:03 AM 57.2580 -5.0380 307° West 484 557 35,000  Level FlightAware ADS-B
Thu 09:25:33 AM 57.3000 -5.1469 307° West 490 564 35,000  Level FlightAware UK
Thu 09:26:00 AM 57.3000 -5.1480 307° West 489 563 35,000  Level FlightAware ADS-B
Thu 09:26:33 AM 57.3785 -5.3506 307° West 494 568 35,000  Level FlightAware UK
Thu 09:26:46 AM 57.3920 -5.3860 307° West 488 562 35,000 -200 Level FlightAware ADS-B
Thu 09:27:03 AM 57.4177 -5.4528 307° West 490 564 34,900 -113 Descending FlightAware UK
Thu 09:27:39 AM 57.4645 -5.5751 305° West 488 562 34,900 154 Level FlightAware UK
Thu 09:27:42 AM 57.4670 -5.5830 305° West 487 560 35,000 167 Climbing FlightAware ADS-B
Thu 09:28:15 AM 57.5107 -5.6973 305° West 492 566 35,000  Level FlightAware UK
Thu 09:28:18 AM 57.5120 -5.7010 305° West 488 562 35,000 -167 Level FlightAware ADS-B
Thu 09:28:51 AM 57.5572 -5.8205 305° West 494 568 34,900  Descending FlightAware UK
Thu 09:29:03 AM 57.5720 -5.8590 305° West 486 559 35,000  Climbing FlightAware ADS-B
Thu 09:29:21 AM 57.5958 -5.9233 305° West 490 564 34,900  Descending FlightAware UK
Thu 09:29:44 AM 57.6210 -5.9910 305° West 485 558 35,000 300 Climbing FlightAware ADS-B
Thu 09:30:21 AM 57.6726 -6.1285 305° West 486 559 35,200 269 Climbing FlightAware UK
Thu 09:30:51 AM 57.7103 -6.2310 305° West 486 559 35,300  Climbing FlightAware UK
Thu 09:30:54 AM 57.6900 -6.1750 305° West 483 556 35,200 333 Descending FlightAware ADS-B
Thu 09:31:27 AM 57.7559 -6.3544 305° West 492 566 35,500 585 Climbing FlightAware UK
Thu 09:31:35 AM 57.7600 -6.3660 305° West 489 563 35,600 400 Climbing FlightAware ADS-B
Thu 09:31:57 AM 57.7944 -6.4590 305° West 494 568 35,700 450 Climbing FlightAware UK
Thu 09:32:15 AM 57.8150 -6.5160 305° West 488 562 35,900 281 Climbing FlightAware ADS-B
Thu 09:33:01 AM 57.8720 -6.6730 304° West 490 564 36,000 67 Climbing FlightAware ADS-B
Thu 09:33:45 AM 57.9300 -6.8330 304° West 489 563 36,000  Level FlightAware ADS-B
Thu 09:34:20 AM 57.9740 -6.9540 304° West 488 562 36,000  Level FlightAware ADS-B
Thu 09:34:21 AM 57.9775 -6.9636 304° West 494 568 36,000 -194 Level FlightAware UK
Thu 09:34:51 AM 58.0152 -7.0689 304° West 490 564 35,900  Descending FlightAware UK
Thu 09:35:06 AM 58.0310 -7.1140 304° West 486 559 36,000 200 Climbing FlightAware ADS-B
Thu 09:35:21 AM 58.0527 -7.1742 304° West 488 562 36,000  Level FlightAware UK
Thu 09:36:03 AM 58.0830 -7.2610 304° West 486 559 36,000  Level FlightAware ADS-B
Thu 09:36:45 AM 58.1560 -7.4660 304° West 483 556 36,000  Level FlightAware ADS-B
Thu 09:37:20 AM 58.2000 -7.5920 304° West 483 556 36,000  Level FlightAware ADS-B
Thu 09:38:11 AM 58.2620 -7.7720 303° West 484 557 36,000  Level FlightAware ADS-B
Thu 09:38:46 AM 58.3070 -7.8990 304° West 484 557 36,000  Level FlightAware ADS-B
Thu 09:39:20 AM 58.3504 -8.0265 304° West 490 564 36,000  Level FlightAware UK
Thu 09:39:32 AM 58.3610 -8.0580 304° West 485 558 36,000 -200 Level FlightAware ADS-B
Thu 09:39:50 AM 58.3874 -8.1346 304° West 490 564 35,900  Descending FlightAware UK
Thu 09:40:17 AM 58.4180 -8.2240 304° West 485 558 36,000  Climbing FlightAware ADS-B
Thu 09:40:56 AM 58.4688 -8.3733 304° West 490 564 35,900  Descending FlightAware UK
Thu 09:41:00 AM 58.4680 -8.3710 304° West 486 559 36,000  Climbing FlightAware ADS-B
Thu 09:41:26 AM 58.5054 -8.4824 304° West 490 564 35,900  Descending FlightAware UK
Thu 09:41:38 AM 58.5170 -8.5180 304° West 486 559 36,000  Climbing FlightAware ADS-B
Thu 09:42:02 AM 58.5493 -8.6135 304° West 490 564 35,900 150 Descending FlightAware UK
Thu 09:42:18 AM 58.5670 -8.6660 304° West 486 559 36,100 500 Climbing FlightAware ADS-B
Thu 09:43:02 AM 58.6227 -8.8323 304° West 492 566 36,400 391 Climbing FlightAware UK
Thu 09:43:04 AM 58.6210 -8.8280 304° West 486 559 36,400 400 Level FlightAware ADS-B
Thu 09:43:32 AM 58.6588 -8.9423 304° West 490 564 36,600 439 Climbing FlightAware UK
Thu 09:43:45 AM 58.6720 -8.9820 304° West 487 560 36,700 462 Climbing FlightAware ADS-B
Thu 09:44:24 AM 58.7190 -9.1260 302° West 490 564 37,000 277 Climbing FlightAware ADS-B
Thu 09:44:50 AM 58.7500 -9.2200 302° West 491 565 37,000  Level FlightAware ADS-B
Thu 09:46:07 AM 58.8350 -9.4820 302° West 492 566 37,000  Level FlightAware ADS-B
Thu 09:46:45 AM 58.8880 -9.6490 302° West 492 566 37,000  Level FlightAware ADS-B
Thu 09:47:30 AM 58.9420 -9.8170 302° West 494 568 37,000  Level FlightAware ADS-B
Thu 09:48:11 AM 58.9890 -9.9680 301° West 494 568 37,000  Level FlightAware ADS-B
Thu 09:48:50 AM 59.0320 -10.1230 298° West 491 565 37,000  Level FlightAware ADS-B
Thu 09:49:30 AM 59.0810 -10.2750 302° West 491 565 37,000  Level FlightAware ADS-B
Thu 09:50:15 AM 59.1290 -10.4460 299° West 495 570 37,000  Level FlightAware ADS-B
Thu 09:51:00 AM 59.1750 -10.6300 296° West 491 565 37,000  Level FlightAware ADS-B
Thu 09:51:55 AM 59.2300 -10.8560 296° West 495 570 37,000  Level FlightAware ADS-B
Thu 09:53:05 AM 59.2980 -11.1380 295° West 495 570 37,000  Level FlightAware ADS-B
Thu 09:53:45 AM 59.3360 -11.2950 295° West 495 570 37,000  Level FlightAware ADS-B
Thu 09:54:30 AM 59.3780 -11.4740 295° West 496 571 37,000  Level FlightAware ADS-B
Thu 09:55:05 AM 59.4130 -11.6240 295° West 497 572 37,000  Level FlightAware ADS-B
Thu 09:55:52 AM 59.4520 -11.7960 294° West 497 572 37,000  Level FlightAware ADS-B
Thu 09:56:31 AM 59.4960 -11.9790 295° West 495 570 37,000  Level FlightAware ADS-B
Thu 09:57:16 AM 59.5340 -12.1490 294° West 495 570 37,000  Level FlightAware ADS-B
Thu 09:58:16 AM 59.5860 -12.3820 294° West 495 570 37,000  Level FlightAware ADS-B
Thu 09:58:55 AM 59.6150 -12.5200 293° West 495 570 37,000  Level FlightAware ADS-B
Thu 09:59:30 AM 59.6420 -12.6440 293° West 495 570 37,000  Level FlightAware ADS-B
Thu 10:00:27 AM 59.6850 -12.8470 293° West 495 570 37,000  Level FlightAware ADS-B
Thu 10:01:18 AM 59.7240 -13.0280 293° West 495 570 37,000  Level FlightAware ADS-B
Thu 10:02:29 AM 59.7780 -13.2810 293° West 495 570 37,000  Level FlightAware ADS-B
Thu 10:03:04 AM 59.8040 -13.4050 293° West 495 570 37,000  Level FlightAware ADS-B
Thu 10:03:52 AM 59.8410 -13.5760 293° West 495 570 37,000  Level FlightAware ADS-B
Thu 10:04:28 AM 59.8680 -13.7050 293° West 495 570 37,000  Level FlightAware ADS-B
Thu 10:05:15 AM 59.9040 -13.8730 293° West 495 570 37,000  Level FlightAware ADS-B
Thu 10:05:57 AM 59.9360 -14.0230 293° West 495 570 37,000  Level FlightAware ADS-B
Thu 10:06:33 AM 59.9630 -14.1520 293° West 495 570 37,000  Level FlightAware ADS-B
Thu 10:07:20 AM 59.9990 -14.3200 293° West 495 570 37,000  Level FlightAware ADS-B
Thu 10:10:00 AM 60.0679 -14.9806 282° West  Level Estimated
Thu 10:11:00 AM 60.0929 -15.2291 282° West  Level Estimated
Thu 10:12:00 AM 60.1174 -15.4779 281° West  Level Estimated
Thu 10:13:00 AM 60.1414 -15.7271 281° West  Level Estimated
Thu 10:14:00 AM 60.1650 -15.9766 281° West  Level Estimated
Thu 10:15:00 AM 60.1881 -16.2265 281° West  Level Estimated
Thu 10:16:00 AM 60.2107 -16.4768 280° West  Level Estimated
Thu 10:17:00 AM 60.2329 -16.7274 280° West  Level Estimated
Thu 10:18:00 AM 60.2546 -16.9783 280° West  Level Estimated
Thu 10:18:40 AM 60.6450 -17.7060 280° West 507 583 37,000  Level FlightAware ADS-B
Thu 10:19:36 AM 60.6810 -17.9190 289° West 507 583 37,000  Level FlightAware ADS-B
Thu 10:20:13 AM 60.7050 -18.0620 289° West 507 583 37,000  Level FlightAware ADS-B
Thu 10:21:18 AM 60.7470 -18.3120 289° West 507 583 37,000  Level FlightAware ADS-B
Thu 10:21:58 AM 60.7730 -18.4670 289° West 507 583 37,000  Level FlightAware ADS-B
Thu 10:22:31 AM 60.8220 -18.7560 289° West 510 587 37,000  Level FlightAware ADS-B
Thu 10:23:08 AM 60.8490 -18.9260 288° West 510 587 37,000  Level FlightAware ADS-B
Thu 10:23:48 AM 60.8790 -19.1110 289° West 510 587 37,000  Level FlightAware ADS-B
Thu 10:24:36 AM 60.9140 -19.3300 288° West 510 587 37,000  Level FlightAware ADS-B
Thu 10:25:48 AM 60.9560 -19.6100 287° West 509 586 37,000  Level FlightAware ADS-B
Thu 10:26:28 AM 60.9790 -19.7680 287° West 509 586 37,000  Level FlightAware ADS-B
Thu 10:27:05 AM 61.0010 -19.9140 287° West 509 586 37,000  Level FlightAware ADS-B
Thu 10:28:03 AM 61.0580 -20.2880 288° West 510 587 37,000  Level FlightAware ADS-B
Thu 10:28:56 AM 61.0850 -20.4940 285° West 510 587 37,000  Level FlightAware ADS-B
Thu 10:29:39 AM 61.1150 -20.7170 286° West 512 589 37,000  Level FlightAware ADS-B
Thu 10:30:59 AM 61.1570 -21.0390 285° West 512 589 37,000  Level FlightAware ADS-B
Thu 10:31:48 AM 61.2000 -21.3510 286° West 514 592 37,000  Level FlightAware ADS-B
Thu 10:32:25 AM 61.2220 -21.5240 285° West 515 593 37,000  Level FlightAware ADS-B
Thu 10:33:14 AM 61.2520 -21.7580 285° West 516 594 37,000  Level FlightAware ADS-B
Thu 10:34:08 AM 61.2780 -21.9690 284° West 516 594 37,000  Level FlightAware ADS-B
Thu 10:34:51 AM 61.3090 -22.2220 284° West 516 594 37,000  Level FlightAware ADS-B
Thu 10:35:29 AM 61.3310 -22.4030 284° West 516 594 37,000  Level FlightAware ADS-B
Thu 10:36:17 AM 61.3470 -22.5380 284° West 517 595 37,000  Level FlightAware ADS-B
Thu 10:36:53 AM 61.3790 -22.8060 284° West 516 594 37,000  Level FlightAware ADS-B
Thu 10:37:37 AM 61.4030 -23.0120 284° West 516 594 37,000  Level FlightAware ADS-B
Thu 10:38:03 AM 61.4180 -23.1440 283° West 516 594 37,000  Level FlightAware ADS-B
Thu 10:38:47 AM 61.4430 -23.3590 284° West 516 594 37,000  Level FlightAware ADS-B
Thu 10:39:31 AM 61.4660 -23.5720 283° West 516 594 37,000  Level FlightAware ADS-B
Thu 10:40:14 AM 61.4890 -23.7760 283° West 515 593 37,000  Level FlightAware ADS-B
Thu 10:40:55 AM 61.5110 -23.9810 283° West 514 592 37,000  Level FlightAware ADS-B
Thu 10:41:34 AM 61.5310 -24.1700 283° West 513 590 37,000  Level FlightAware ADS-B
Thu 10:42:18 AM 61.5540 -24.3830 283° West 512 589 37,000  Level FlightAware ADS-B
Thu 10:43:01 AM 61.5750 -24.5900 282° West 512 589 37,000  Level FlightAware ADS-B
Thu 10:43:44 AM 61.5970 -24.7990 283° West 512 589 37,000  Level FlightAware ADS-B
Thu 10:44:24 AM 61.6160 -24.9940 282° West 511 588 37,000  Level FlightAware ADS-B
Thu 10:45:03 AM 61.6340 -25.1790 282° West 511 588 37,000  Level FlightAware ADS-B
Thu 10:46:44 AM 61.6770 -25.6260 282° West 511 588 37,000  Level FlightAware ADS-B
Thu 10:47:29 AM 61.7020 -25.8890 281° West 512 589 37,000  Level FlightAware ADS-B
Thu 10:48:04 AM 61.7180 -26.0640 281° West 512 589 37,000  Level FlightAware ADS-B
Thu 10:48:46 AM 61.7320 -26.2330 280° West 512 589 37,000  Level FlightAware ADS-B
Thu 10:50:00 AM 61.7660 -26.6110 281° West 512 589 37,000  Level FlightAware ADS-B
Thu 10:50:38 AM 61.7790 -26.7710 280° West 512 589 37,000  Level FlightAware ADS-B
Thu 10:51:17 AM 61.7930 -26.9340 280° West 512 589 37,000  Level FlightAware ADS-B
Thu 10:52:07 AM 61.8210 -27.2540 281° West 512 589 37,000  Level FlightAware ADS-B
Thu 10:52:43 AM 61.8350 -27.4260 280° West 512 589 37,000  Level FlightAware ADS-B
Thu 10:53:30 AM 61.8540 -27.6640 280° West 511 588 37,000  Level FlightAware ADS-B
Thu 10:54:05 AM 61.8670 -27.8330 279° West 511 588 37,000  Level FlightAware ADS-B
Thu 10:54:57 AM 61.8830 -28.0520 279° West 511 588 37,000  Level FlightAware ADS-B
Thu 10:55:51 AM 61.9000 -28.2800 279° West 511 588 37,000  Level FlightAware ADS-B
Thu 10:56:31 AM 61.9210 -28.5520 279° West 510 587 37,000  Level FlightAware ADS-B
Thu 10:57:12 AM 61.9350 -28.7550 278° West 510 587 37,000  Level FlightAware ADS-B
Thu 10:57:55 AM 61.9500 -28.9640 279° West 511 588 37,000  Level FlightAware ADS-B
Thu 10:58:36 AM 61.9630 -29.1680 278° West 511 588 37,000  Level FlightAware ADS-B
Thu 10:59:17 AM 61.9750 -29.3450 278° West 511 588 37,000  Level FlightAware ADS-B
Thu 11:00:03 AM 61.9880 -29.5390 278° West 511 588 37,000  Level FlightAware ADS-B
Thu 11:00:45 AM 62.0000 -29.7180 278° West 511 588 37,000  Level FlightAware ADS-B
Thu 11:01:25 AM 62.0110 -29.8870 278° West 511 588 37,000  Level FlightAware ADS-B
Thu 11:02:02 AM 62.0210 -30.0440 278° West 511 588 37,000  Level FlightAware ADS-B
Thu 11:02:53 AM 62.0350 -30.2600 278° West 511 588 37,000  Level FlightAware ADS-B
Thu 11:03:30 AM 62.0460 -30.4170 279° West 511 588 37,000  Level FlightAware ADS-B
Thu 11:04:31 AM 62.0630 -30.6770 278° West 511 588 37,000  Level FlightAware ADS-B
Thu 11:05:08 AM 62.0730 -30.8340 278° West 511 588 37,000  Level FlightAware ADS-B
Thu 11:05:48 AM 62.0840 -31.0040 278° West 511 588 37,000  Level FlightAware ADS-B
Thu 11:06:27 AM 62.0950 -31.1700 278° West 511 588 37,000  Level FlightAware ADS-B
Thu 11:07:28 AM 62.1120 -31.4290 278° West 511 588 37,000  Level FlightAware ADS-B
Thu 11:08:14 AM 62.1250 -31.6250 278° West 511 588 37,000  Level FlightAware ADS-B
Thu 11:10:00 AM 62.1317 -32.1159 272° West  Level FlightAware Approximate
Thu 11:11:00 AM 62.1347 -32.3939 271° West  Level FlightAware Approximate
Thu 11:12:00 AM 62.1371 -32.6719 271° West  Level FlightAware Approximate
Thu 11:13:00 AM 62.1390 -32.9500 271° West  Level FlightAware Approximate
Thu 11:14:00 AM 62.1403 -33.2281 271° West  Level FlightAware Approximate
Thu 11:15:00 AM 62.1411 -33.5062 270° West  Level FlightAware Approximate
Thu 11:16:00 AM 62.1413 -33.7843 270° West  Level FlightAware Approximate
Thu 11:17:00 AM 62.1409 -34.0624 270° West  Level FlightAware Approximate
Thu 11:18:00 AM 62.1400 -34.3405 270° West  Level FlightAware Approximate
Thu 11:19:00 AM 62.1386 -34.6186 269° West  Level FlightAware Approximate
Thu 11:20:00 AM 62.1366 -34.8966 269° West  Level FlightAware Approximate
Thu 11:21:00 AM 62.1340 -35.1747 269° West  Level FlightAware Approximate
Thu 11:22:00 AM 62.1309 -35.4526 269° West  Level FlightAware Approximate
Thu 11:22:59 AM 62.1000 -36.3167 267° West 530 610 37,000  Level Gander Center
Thu 11:23:00 AM 62.1272 -35.7305 268° West  Level FlightAware Approximate
Thu 11:23:59 AM 62.1000 -36.6500 270° West 520 598 37,000  Level Gander Center
Thu 11:24:00 AM 62.1229 -36.0083 268° West  Level FlightAware Approximate
Thu 11:24:59 AM 62.0833 -36.9667 264° West 520 598 37,000  Level Gander Center
Thu 11:25:00 AM 62.1181 -36.2861 268° West  Level FlightAware Approximate
Thu 11:25:59 AM 62.0833 -37.2667 270° West 520 598 37,000  Level Gander Center
Thu 11:26:00 AM 62.1128 -36.5637 268° West  Level FlightAware Approximate
Thu 11:26:59 AM 62.0833 -37.5667 270° West 520 598 37,000  Level Gander Center
Thu 11:27:00 AM 62.1068 -36.8413 268° West  Level FlightAware Approximate
Thu 11:27:59 AM 62.0667 -37.8667 263° West 520 598 37,000  Level Gander Center
Thu 11:28:00 AM 62.1004 -37.1187 267° West  Level FlightAware Approximate
Thu 11:28:59 AM 62.0667 -38.1667 270° West 520 598 37,000  Level Gander Center
Thu 11:29:59 AM 62.0667 -38.4667 270° West 520 598 37,000  Level Gander Center
Thu 11:30:59 AM 62.0667 -38.7667 270° West 520 598 37,000  Level Gander Center
Thu 11:31:59 AM 62.0500 -39.0833 264° West 520 598 37,000  Level Gander Center
Thu 11:32:59 AM 62.0333 -39.3833 263° West 520 598 37,000  Level Gander Center
Thu 11:33:59 AM 62.0333 -39.6667 270° West 520 598 37,000  Level Gander Center
Thu 11:34:59 AM 62.0000 -39.9500 256° West 510 587 37,000  Level Gander Center
Thu 11:35:59 AM 62.0000 -40.2500 270° West 510 587 37,000  Level Gander Center
Thu 11:36:59 AM 61.9833 -40.5667 264° West 510 587 37,000  Level Gander Center
Thu 11:37:59 AM 61.9500 -40.8667 257° West 510 587 37,000  Level Gander Center
Thu 11:38:59 AM 61.9333 -41.1333 263° West 510 587 37,000  Level Gander Center
Thu 11:39:59 AM 61.9167 -41.4333 263° West 510 587 37,000  Level Gander Center
Thu 11:40:59 AM 61.9000 -41.7333 263° West 510 587 37,000  Level Gander Center
Thu 11:41:59 AM 61.8667 -42.0167 256° West 510 587 37,000  Level Gander Center
Thu 11:42:59 AM 61.8500 -42.3167 263° West 510 587 37,000  Level Gander Center
Thu 11:43:59 AM 61.8333 -42.6167 263° West 510 587 37,000  Level Gander Center
Thu 11:44:59 AM 61.8000 -42.8833 255° West 510 587 37,000  Level Gander Center
Thu 11:45:59 AM 61.7667 -43.2000 258° West 510 587 37,000  Level Gander Center
Thu 11:46:59 AM 61.7667 -43.4833 270° West 510 587 37,000  Level Gander Center
Thu 11:47:59 AM 61.7333 -43.8000 258° West 510 587 37,000  Level Gander Center
Thu 11:48:59 AM 61.7000 -44.0667 255° West 510 587 37,000  Level Gander Center
Thu 11:49:59 AM 61.6833 -44.3667 263° West 510 587 37,000  Level Gander Center
Thu 11:50:59 AM 61.6500 -44.6333 255° West 500 575 37,000  Level Gander Center
Thu 11:51:59 AM 61.6167 -44.9333 257° West 500 575 37,000  Level Gander Center
Thu 11:52:59 AM 61.6000 -45.2333 263° West 500 575 37,000  Level Gander Center
Thu 11:53:59 AM 61.5500 -45.5000 249° West 500 575 37,000  Level Gander Center
Thu 11:54:59 AM 61.5333 -45.7833 263° West 500 575 37,000  Level Gander Center
Thu 11:55:59 AM 61.5000 -46.0500 255° West 500 575 37,000  Level Gander Center
Thu 11:56:59 AM 61.4833 -46.3500 263° West 500 575 37,000  Level Gander Center
Thu 11:57:59 AM 61.4500 -46.6167 255° West 500 575 37,000  Level Gander Center
Thu 11:58:59 AM 61.4000 -46.8833 249° West 490 564 37,000  Level Gander Center
Thu 11:59:59 AM 61.3833 -47.1667 263° West 490 564 37,000  Level Gander Center
Thu 12:00:59 PM 61.3333 -47.4333 249° West 490 564 37,000  Level Gander Center
Thu 12:01:59 PM 61.3167 -47.6833 262° West 490 564 37,000  Level Gander Center
Thu 12:02:59 PM 61.2667 -47.9833 251° West 490 564 37,000  Level Gander Center
Thu 12:03:59 PM 61.2500 -48.2833 264° West 490 564 37,000  Level Gander Center
Thu 12:04:59 PM 61.2000 -48.5333 248° West 490 564 37,000  Level Gander Center
Thu 12:05:59 PM 61.1833 -48.8000 255° West 490 564 37,000  Level Gander Center
Thu 12:06:00 PM 61.1656 -48.7952 255° West  Level FlightAware Approximate
Thu 12:06:59 PM 61.1333 -49.0833 250° West 490 564 37,000  Level Gander Center
Thu 12:07:59 PM 61.1167 -49.3500 263° West 490 564 37,000  Level Gander Center
Thu 12:08:59 PM 61.0667 -49.6000 248° West 490 564 37,000  Level Gander Center
Thu 12:09:59 PM 61.0333 -49.8500 255° West 480 552 37,000  Level Gander Center
Thu 12:10:59 PM 61.0000 -50.1500 257° West 480 552 37,000  Level Gander Center
Thu 12:11:59 PM 60.9500 -50.4000 248° West 480 552 37,000  Level Gander Center
Thu 12:12:59 PM 60.9000 -50.6667 249° West 480 552 37,000  Level Gander Center
Thu 12:13:59 PM 60.8500 -50.9167 248° West 480 552 37,000  Level Gander Center
Thu 12:14:59 PM 60.8167 -51.1667 255° West 480 552 37,000  Level Gander Center
Thu 12:15:59 PM 60.7667 -51.4167 248° West 480 552 37,000  Level Gander Center
Thu 12:16:59 PM 60.7167 -51.6833 249° West 480 552 37,000  Level Gander Center
Thu 12:17:59 PM 60.6667 -51.9333 248° West 480 552 37,000  Level Gander Center
Thu 12:18:59 PM 60.6167 -52.1833 248° West 480 552 37,000  Level Gander Center
Thu 12:19:59 PM 60.5667 -52.4333 248° West 480 552 37,000  Level Gander Center
Thu 12:20:59 PM 60.5167 -52.6833 248° West 480 552 37,000  Level Gander Center
Thu 12:21:59 PM 60.4833 -52.9333 255° West 480 552 37,000  Level Gander Center
Thu 12:22:59 PM 60.4333 -53.1833 248° West 480 552 37,000  Level Gander Center
Thu 12:23:59 PM 60.3833 -53.4333 248° West 470 541 37,000  Level Gander Center
Thu 12:24:59 PM 60.3333 -53.6833 248° West 470 541 37,000  Level Gander Center
Thu 12:25:59 PM 60.2667 -53.9333 242° Southwest 470 541 37,000  Level Gander Center
Thu 12:26:59 PM 60.2333 -54.1333 252° West 470 541 37,000  Level Gander Center
Thu 12:28:10 PM 60.1667 -54.4167 245° Southwest 470 541 37,000  Level Gander Center
Thu 12:29:10 PM 60.1333 -54.6667 255° West 470 541 37,000  Level Gander Center
Thu 12:30:10 PM 60.0667 -54.9167 242° Southwest 470 541 37,000  Level Gander Center
Thu 12:32:10 PM 59.9667 -55.4000 248° West 470 541 37,000  Level Gander Center
Thu 12:33:10 PM 59.9167 -55.6000 244° Southwest 470 541 37,000  Level Gander Center
Thu 12:34:10 PM 59.8667 -55.8500 248° West 470 541 37,000  Level Gander Center
Thu 12:35:10 PM 59.8000 -56.0833 240° Southwest 480 552 37,000  Level Gander Center
Thu 12:36:10 PM 59.7500 -56.3333 248° West 470 541 37,000  Level Gander Center
Thu 12:37:10 PM 59.7000 -56.5667 247° West 470 541 37,000  Level Gander Center
Thu 12:38:10 PM 59.6500 -56.8000 247° West 470 541 37,000  Level Gander Center
Thu 12:39:10 PM 59.5833 -57.0000 237° Southwest 470 541 37,000  Level Gander Center
Thu 12:40:10 PM 59.5333 -57.2500 249° West 470 541 37,000  Level Gander Center
Thu 12:41:10 PM 59.4667 -57.4833 241° Southwest 470 541 37,000  Level Gander Center
Thu 12:42:10 PM 59.4167 -57.7167 247° West 470 541 37,000  Level Gander Center
Thu 12:43:10 PM 59.3667 -57.9500 247° West 460 529 37,000 50 Level Gander Center
Thu 12:44:10 PM 59.3000 -58.1500 237° Southwest 470 541 37,100 350 Climbing Gander Center
Thu 12:45:10 PM 59.2333 -58.3833 241° Southwest 470 541 37,700 450 Climbing Gander Center
Thu 12:46:10 PM 59.2000 -58.6167 255° West 470 541 38,000 150 Climbing Gander Center
Thu 12:47:10 PM 59.1333 -58.8500 241° Southwest 460 529 38,000  Level Gander Center
Thu 12:48:10 PM 59.0667 -59.0500 237° Southwest 460 529 38,000  Level Gander Center
Thu 12:49:10 PM 59.0000 -59.2833 241° Southwest 460 529 38,000  Level Gander Center
Thu 12:50:10 PM 58.9500 -59.5000 246° West 460 529 38,000  Level Gander Center
Thu 12:51:10 PM 58.9000 -59.7333 248° West 460 529 38,000  Level Gander Center
Thu 12:52:10 PM 58.8333 -59.9333 237° Southwest 460 529 38,000  Level Gander Center
Thu 12:53:10 PM 58.7667 -60.1500 239° Southwest 460 529 38,000  Level Gander Center
Thu 12:53:59 PM 58.7167 -60.3500 244° Southwest 460 529 38,000  Level Gander Center
Thu 12:54:59 PM 58.6667 -60.5500 244° Southwest 460 529 38,000  Level Gander Center
Thu 12:56:10 PM 58.6000 -60.8000 243° Southwest 450 518 38,000  Level Gander Center
Thu 12:57:10 PM 58.5333 -61.0333 241° Southwest 460 529 38,000  Level Gander Center
Thu 12:58:10 PM 58.4667 -61.1833 230° Southwest 460 529 38,000  Level Montreal Center
Thu 12:59:10 PM 58.4000 -61.4667 246° West 460 529 38,000  Level Gander Center
Thu 01:00:10 PM 58.3333 -61.6667 238° Southwest 460 529 38,000  Level Gander Center
Thu 01:01:10 PM 58.2833 -61.8833 246° West 460 529 38,000  Level Gander Center
Thu 01:02:10 PM 58.2167 -62.1000 240° Southwest 460 529 38,000  Level Gander Center
Thu 01:03:10 PM 58.1500 -62.3000 238° Southwest 460 529 38,000  Level Gander Center
Thu 01:04:10 PM 58.1000 -62.5167 246° West 460 529 38,000  Level Gander Center
Thu 01:05:10 PM 58.0333 -62.7333 240° Southwest 460 529 38,000  Level Gander Center
Thu 01:06:10 PM 57.9667 -62.9167 236° Southwest 460 529 38,000  Level Gander Center
Thu 01:07:10 PM 57.8833 -63.1333 234° Southwest 470 541 38,000  Level Gander Center
Thu 01:08:10 PM 57.8167 -63.3167 236° Southwest 460 529 38,000  Level Gander Center
Thu 01:09:10 PM 57.7500 -63.5000 236° Southwest 460 529 38,000  Level Montreal Center
Thu 01:10:10 PM 57.6833 -63.6833 236° Southwest 460 529 38,000  Level Montreal Center
Thu 01:11:10 PM 57.6000 -63.9000 234° Southwest 450 518 38,000  Level Montreal Center
Thu 01:12:10 PM 57.5333 -64.0667 233° Southwest 450 518 38,000  Level Montreal Center
Thu 01:13:10 PM 57.4667 -64.2833 240° Southwest 460 529 38,000  Level Montreal Center
Thu 01:14:10 PM 57.4000 -64.5333 244° Southwest 460 529 38,000  Level Gander Center
Thu 01:15:10 PM 57.3167 -64.7167 230° Southwest 450 518 38,000  Level Gander Center
Thu 01:16:10 PM 57.2667 -64.9167 245° Southwest 450 518 38,000  Level Gander Center
Thu 01:17:10 PM 57.2000 -65.1000 236° Southwest 450 518 38,000  Level Gander Center
Thu 01:18:10 PM 57.1167 -65.2333 221° Southwest 450 518 38,000  Level Montreal Center
Thu 01:19:10 PM 57.0500 -65.4833 244° Southwest 460 529 38,000  Level Gander Center
Thu 01:20:10 PM 56.9833 -65.6667 236° Southwest 460 529 38,000  Level Gander Center
Thu 01:21:10 PM 56.9000 -65.8333 228° Southwest 460 529 38,000  Level Montreal Center
Thu 01:22:10 PM 56.8333 -66.0500 241° Southwest 460 529 38,000  Level Gander Center
Thu 01:23:10 PM 56.7500 -66.2833 237° Southwest 460 529 38,000  Level Gander Center
Thu 01:24:10 PM 56.6833 -66.4500 234° Southwest 460 529 38,000  Level Gander Center
Thu 01:25:10 PM 56.6000 -66.6500 233° Southwest 450 518 38,000  Level Gander Center
Thu 01:26:10 PM 56.5333 -66.8167 234° Southwest 460 529 38,000  Level Gander Center
Thu 01:27:10 PM 56.4500 -66.9667 225° Southwest 460 529 38,000  Level Montreal Center
Thu 01:28:10 PM 56.3833 -67.2000 243° Southwest 460 529 38,000  Level Gander Center
Thu 01:29:10 PM 56.3000 -67.4000 233° Southwest 450 518 38,000  Level Gander Center
Thu 01:30:10 PM 56.2333 -67.5333 228° Southwest 460 529 38,000  Level Montreal Center
Thu 01:31:10 PM 56.1667 -67.7000 234° Southwest 460 529 38,000  Level Montreal Center
Thu 01:32:10 PM 56.1000 -67.9000 239° Southwest 460 529 38,000  Level Montreal Center
Thu 01:33:10 PM 56.0000 -68.0667 223° Southwest 460 529 38,000  Level Montreal Center
Thu 01:34:10 PM 55.9333 -68.2667 239° Southwest 450 518 38,000  Level Montreal Center
Thu 01:35:10 PM 55.8500 -68.4333 228° Southwest 460 529 38,000  Level Montreal Center
Thu 01:36:10 PM 55.7833 -68.6167 237° Southwest 460 529 38,000  Level Montreal Center
Thu 01:37:10 PM 55.7000 -68.8167 234° Southwest 460 529 38,000  Level Montreal Center
Thu 01:38:10 PM 55.6167 -68.9833 229° Southwest 460 529 38,000  Level Montreal Center
Thu 01:39:10 PM 55.5500 -69.1667 237° Southwest 460 529 38,000  Level Montreal Center
Thu 01:40:10 PM 55.4667 -69.3333 229° Southwest 460 529 38,000  Level Montreal Center
Thu 01:41:10 PM 55.4000 -69.5167 237° Southwest 460 529 38,000  Level Montreal Center
Thu 01:42:10 PM 55.3000 -69.7500 233° Southwest 460 529 38,000  Level Gander Center
Thu 01:43:10 PM 55.2333 -69.8833 229° Southwest 450 518 38,000  Level Montreal Center
Thu 01:44:10 PM 55.1500 -70.0333 226° Southwest 460 529 38,000  Level Montreal Center
Thu 01:45:10 PM 55.0667 -70.2167 232° Southwest 450 518 38,000  Level Montreal Center
Thu 01:46:10 PM 55.0000 -70.3833 235° Southwest 450 518 38,000  Level Montreal Center
Thu 01:47:10 PM 54.9167 -70.5667 232° Southwest 460 529 38,000  Level Montreal Center
Thu 01:48:10 PM 54.8500 -70.7333 235° Southwest 450 518 38,000  Level Montreal Center
Thu 01:49:10 PM 54.7667 -70.9167 232° Southwest 460 529 38,000  Level Montreal Center
Thu 01:50:10 PM 54.6667 -71.1000 227° Southwest 460 529 38,000  Level Montreal Center
Thu 01:51:10 PM 54.6000 -71.2500 233° Southwest 460 529 38,000  Level Montreal Center
Thu 01:53:10 PM 54.4333 -71.6500 234° Southwest 470 541 38,000  Level Gander Center
Thu 01:54:10 PM 54.3500 -71.8333 232° Southwest 470 541 38,000  Level Gander Center
Thu 01:55:10 PM 54.2667 -71.9833 226° Southwest 470 541 38,000  Level Gander Center
Thu 01:56:10 PM 54.1833 -72.1667 232° Southwest 470 541 38,000  Level Gander Center
Thu 01:57:10 PM 54.0833 -72.2833 214° Southwest 470 541 38,000  Level Montreal Center
Thu 01:58:10 PM 54.0167 -72.4667 238° Southwest 470 541 38,000  Level Montreal Center
Thu 01:59:10 PM 53.9167 -72.6500 227° Southwest 460 529 38,000  Level Montreal Center
Thu 02:00:10 PM 53.8333 -72.8500 235° Southwest 470 541 38,000  Level Gander Center
Thu 02:01:10 PM 53.7500 -73.0167 230° Southwest 470 541 38,000  Level Gander Center
Thu 02:02:10 PM 53.6667 -73.1667 227° Southwest 470 541 38,000  Level Gander Center
Thu 02:03:10 PM 53.5833 -73.3000 224° Southwest 470 541 38,000  Level Montreal Center
Thu 02:04:10 PM 53.5000 -73.4667 230° Southwest 470 541 38,000  Level Montreal Center
Thu 02:05:10 PM 53.4167 -73.6500 233° Southwest 470 541 38,000  Level Montreal Center
Thu 02:06:10 PM 53.3167 -73.8000 222° Southwest 470 541 38,000  Level Montreal Center
Thu 02:07:10 PM 53.2333 -73.9667 230° Southwest 470 541 38,000  Level Montreal Center
Thu 02:08:10 PM 53.1500 -74.1333 230° Southwest 470 541 38,000  Level Montreal Center
Thu 02:09:10 PM 53.0667 -74.2833 227° Southwest 470 541 38,000  Level Montreal Center
Thu 02:10:10 PM 52.9833 -74.4500 230° Southwest 470 541 38,000  Level Montreal Center
Thu 02:11:10 PM 52.9000 -74.6167 230° Southwest 470 541 38,000  Level Montreal Center
Thu 02:12:10 PM 52.8000 -74.8000 228° Southwest 470 541 38,000  Level Montreal Center
Thu 02:13:10 PM 52.7000 -74.9333 219° Southwest 480 552 38,000  Level Montreal Center
Thu 02:14:10 PM 52.6167 -75.1000 231° Southwest 470 541 38,000  Level Montreal Center
Thu 02:15:10 PM 52.5167 -75.2667 225° Southwest 480 552 38,000  Level Montreal Center
Thu 02:16:10 PM 52.4333 -75.4333 231° Southwest 480 552 38,000  Level Montreal Center
Thu 02:17:10 PM 52.3333 -75.6000 226° Southwest 480 552 38,000  Level Montreal Center
Thu 02:18:10 PM 52.2500 -75.7667 231° Southwest 480 552 38,000  Level Montreal Center
Thu 02:19:10 PM 52.1667 -75.9167 228° Southwest 480 552 38,000  Level Montreal Center
Thu 02:20:10 PM 52.0667 -76.0667 223° Southwest 480 552 38,000  Level Montreal Center
Thu 02:21:10 PM 51.9833 -76.2333 231° Southwest 480 552 38,000  Level Montreal Center
Thu 02:22:10 PM 51.8833 -76.4000 226° Southwest 480 552 38,000  Level Montreal Center
Thu 02:23:10 PM 51.7833 -76.5667 226° Southwest 480 552 38,000  Level Montreal Center
Thu 02:24:10 PM 51.6833 -76.7167 223° Southwest 480 552 38,000  Level Montreal Center
Thu 02:25:10 PM 51.6000 -76.8833 231° Southwest 480 552 38,000  Level Montreal Center
Thu 02:26:10 PM 51.5000 -77.0167 220° Southwest 480 552 38,000  Level Montreal Center
Thu 02:27:10 PM 51.4167 -77.1833 231° Southwest 490 564 38,000  Level Montreal Center
Thu 02:28:10 PM 51.3167 -77.3333 223° Southwest 470 541 38,000  Level Montreal Center
Thu 02:29:10 PM 51.2333 -77.5000 231° Southwest 480 552 38,000  Level Montreal Center
Thu 02:30:10 PM 51.1167 -77.6500 219° Southwest 480 552 38,000  Level Montreal Center
Thu 02:31:10 PM 51.0333 -77.7833 225° Southwest 480 552 38,000  Level Montreal Center
Thu 02:32:10 PM 50.9333 -77.9667 229° Southwest 480 552 38,000  Level Montreal Center
Thu 02:33:10 PM 50.8500 -78.1000 225° Southwest 480 552 38,000  Level Montreal Center
Thu 02:34:10 PM 50.7500 -78.2500 224° Southwest 480 552 38,000  Level Montreal Center
Thu 02:35:10 PM 50.6500 -78.4000 224° Southwest 480 552 38,000  Level Montreal Center
Thu 02:36:10 PM 50.5500 -78.5667 227° Southwest 480 552 38,000  Level Montreal Center
Thu 02:37:10 PM 50.4667 -78.7167 229° Southwest 480 552 38,000  Level Montreal Center
Thu 02:38:10 PM 50.3833 -78.8333 222° Southwest 470 541 38,000  Level Montreal Center
Thu 02:39:10 PM 50.2667 -79.0000 222° Southwest 480 552 38,000  Level Montreal Center
Thu 02:40:10 PM 50.1833 -79.1500 229° Southwest 470 541 38,000  Level Montreal Center
Thu 02:41:10 PM 50.1000 -79.3000 229° Southwest 470 541 38,000  Level Montreal Center
Thu 02:42:10 PM 49.9833 -79.4500 220° Southwest 480 552 38,000  Level Montreal Center
Thu 02:43:10 PM 49.9000 -79.5667 222° Southwest 470 541 38,000  Level Montreal Center
Thu 02:44:10 PM 49.8000 -79.7167 224° Southwest 480 552 38,000  Level Montreal Center
Thu 02:45:10 PM 49.7000 -79.8667 224° Southwest 480 552 38,000  Level Montreal Center
Thu 02:46:10 PM 49.6167 -79.9833 222° Southwest 480 552 38,000  Level Montreal Center
Thu 02:47:10 PM 49.5167 -80.1667 230° Southwest 480 552 38,000  Level Montreal Center
Thu 02:48:10 PM 49.4167 -80.2833 217° Southwest 480 552 38,000  Level Montreal Center
Thu 02:49:10 PM 49.3167 -80.4333 224° Southwest 480 552 38,000  Level Montreal Center
Thu 02:50:10 PM 49.2333 -80.5833 230° Southwest 480 552 38,000  Level Montreal Center
Thu 02:51:10 PM 49.1167 -80.7167 217° Southwest 480 552 38,000  Level Montreal Center
Thu 02:52:13 PM 49.0167 -80.8167 213° Southwest 480 552 38,000  Level Toronto Center
Thu 02:53:10 PM 48.9333 -80.9833 233° Southwest 480 552 38,000  Level Montreal Center
Thu 02:54:10 PM 48.8333 -81.1333 225° Southwest 480 552 38,000  Level Montreal Center
Thu 02:55:10 PM 48.7333 -81.2667 221° Southwest 480 552 38,000  Level Montreal Center
Thu 02:56:10 PM 48.6333 -81.4167 225° Southwest 480 552 38,000  Level Montreal Center
Thu 02:57:10 PM 48.5333 -81.5500 221° Southwest 480 552 38,000  Level Montreal Center
Thu 02:58:10 PM 48.4333 -81.7000 225° Southwest 480 552 38,000  Level Montreal Center
Thu 02:59:10 PM 48.3500 -81.8167 223° Southwest 480 552 38,000  Level Montreal Center
Thu 03:00:10 PM 48.2333 -81.9500 217° Southwest 480 552 38,000  Level Montreal Center
Thu 03:01:10 PM 48.1500 -82.0833 227° Southwest 480 552 38,000  Level Montreal Center
Thu 03:06:24 PM 47.5500 -82.6470 227° Southwest 493 567 38,000  Level FlightAware ADS-B
Thu 03:06:56 PM 47.4810 -82.7130 213° Southwest 493 567 38,000  Level FlightAware ADS-B
Thu 03:07:36 PM 47.4050 -82.7850 213° Southwest 492 566 38,000  Level FlightAware ADS-B
Thu 03:08:16 PM 47.3260 -82.8590 212° Southwest 492 566 38,000  Level FlightAware ADS-B
Thu 03:09:04 PM 47.2360 -82.9440 213° Southwest 493 567 38,000  Level FlightAware ADS-B
Thu 03:09:46 PM 47.1560 -83.0190 213° Southwest 493 567 38,000  Level FlightAware ADS-B
Thu 03:10:28 PM 47.0730 -83.0960 212° Southwest 495 570 38,000  Level FlightAware ADS-B
Thu 03:11:08 PM 46.9960 -83.1680 213° Southwest 495 570 38,000  Level FlightAware ADS-B
Thu 03:11:52 PM 46.9110 -83.2460 212° Southwest 495 570 38,000  Level FlightAware ADS-B
Thu 03:12:34 PM 46.8300 -83.3210 212° Southwest 496 571 38,000  Level FlightAware ADS-B
Thu 03:13:14 PM 46.7510 -83.3930 212° Southwest 496 571 38,000  Level FlightAware ADS-B
Thu 03:13:59 PM 46.6670 -83.4700 212° Southwest 494 568 38,000  Level FlightAware ADS-B
Thu 03:14:38 PM 46.5900 -83.5410 212° Southwest 494 568 38,000  Level FlightAware ADS-B
Thu 03:15:22 PM 46.5030 -83.6190 212° Southwest 493 567 38,000  Level FlightAware ADS-B
Thu 03:16:18 PM 46.3950 -83.7170 212° Southwest 493 567 38,000  Level FlightAware ADS-B
Thu 03:16:58 PM 46.3180 -83.7870 212° Southwest 495 570 38,000  Level FlightAware ADS-B
Thu 03:17:43 PM 46.2330 -83.8630 212° Southwest 495 570 38,000  Level FlightAware ADS-B
Thu 03:18:11 PM 46.1780 -83.9130 212° Southwest 496 571 38,000  Level FlightAware ADS-B
Thu 03:18:52 PM 46.0970 -83.9850 212° Southwest 498 573 38,000  Level FlightAware ADS-B
Thu 03:19:32 PM 46.0190 -84.0540 212° Southwest 497 572 38,000  Level FlightAware ADS-B
Thu 03:20:09 PM 45.9530 -84.1130 212° Southwest 497 572 38,000  Level FlightAware ADS-B
Thu 03:20:56 PM 45.8530 -84.2010 212° Southwest 497 572 38,000  Level FlightAware ADS-B
Thu 03:21:36 PM 45.7760 -84.2650 210° Southwest 500 575 38,000  Level FlightAware ADS-B
Thu 03:22:20 PM 45.6790 -84.3210 202° Southwest 508 585 38,000  Level FlightAware ADS-B
Thu 03:23:04 PM 45.5800 -84.3660 198° South 508 585 38,000  Level FlightAware ADS-B
Thu 03:23:46 PM 45.4860 -84.4080 197° South 508 585 38,000  Level FlightAware ADS-B
Thu 03:24:26 PM 45.3980 -84.4490 198° South 509 586 38,000  Level FlightAware ADS-B
Thu 03:25:08 PM 45.3060 -84.4920 198° South 508 585 38,000 -429 Level FlightAware ADS-B
Thu 03:26:04 PM 45.1790 -84.5510 198° South 503 579 37,300 -900 Descending FlightAware ADS-B
Thu 03:26:48 PM 45.0860 -84.5940 198° South 504 580 36,500 -1,133 Descending FlightAware ADS-B
Thu 03:27:34 PM 44.9800 -84.6420 198° South 510 587 35,600 -1,067 Descending FlightAware ADS-B
Thu 03:28:18 PM 44.8800 -84.6880 198° South 510 587 34,900 -929 Descending FlightAware ADS-B
Thu 03:28:58 PM 44.7910 -84.7280 198° South 512 589 34,300 -1,077 Descending FlightAware ADS-B
Thu 03:29:36 PM 44.7040 -84.7680 198° South 518 596 33,500 -1,111 Descending FlightAware ADS-B
Thu 03:30:19 PM 44.6080 -84.8100 197° South 523 602 32,800 -857 Descending FlightAware ADS-B
Thu 03:31:00 PM 44.5110 -84.8540 198° South 519 597 32,300 -608 Descending FlightAware ADS-B
Thu 03:31:38 PM 44.4230 -84.8930 198° South 522 601 32,000 -222 Descending FlightAware ADS-B
Thu 03:32:21 PM 44.3290 -84.9360 198° South 521 600 32,000  Level FlightAware ADS-B
Thu 03:33:13 PM 44.2090 -84.9890 198° South 521 600 32,000  Level FlightAware ADS-B
Thu 03:34:01 PM 44.0960 -85.0390 198° South 520 598 32,000  Level FlightAware ADS-B
Thu 03:34:41 PM 44.0050 -85.0790 198° South 519 597 32,000  Level FlightAware ADS-B
Thu 03:35:23 PM 43.9100 -85.1210 198° South 518 596 32,000  Level FlightAware ADS-B
Thu 03:36:05 PM 43.8130 -85.1630 197° South 518 596 32,000  Level FlightAware ADS-B
Thu 03:36:44 PM 43.7220 -85.2030 198° South 520 598 32,000  Level FlightAware ADS-B
Thu 03:37:18 PM 43.6430 -85.2310 194° South 523 602 32,000  Level FlightAware ADS-B
Thu 03:37:58 PM 43.5490 -85.2610 193° South 524 603 32,000  Level FlightAware ADS-B
Thu 03:38:41 PM 43.4480 -85.2930 193° South 526 605 32,000 -146 Level FlightAware ADS-B
Thu 03:39:20 PM 43.3540 -85.3220 193° South 527 606 31,800 -585 Descending FlightAware ADS-B
Thu 03:40:03 PM 43.2530 -85.3530 193° South 527 606 31,200 -571 Descending FlightAware ADS-B
Thu 03:40:44 PM 43.1560 -85.3830 193° South 519 597 31,000 -621 Descending FlightAware ADS-B
Thu 03:41:30 PM 43.0480 -85.4170 193° South 521 600 30,300 -977 Descending FlightAware ADS-B
Thu 03:42:10 PM 42.9540 -85.4460 193° South 525 604 29,600 -878 Descending FlightAware ADS-B
Thu 03:42:52 PM 42.8550 -85.4800 194° South 517 595 29,100 -732 Descending FlightAware ADS-B
Thu 03:43:32 PM 42.7860 -85.5580 220° Southwest 482 555 28,600 -867 Descending FlightAware ADS-B
Thu 03:44:15 PM 42.7540 -85.6740 249° West 453 521 27,900 -1,655 Descending FlightAware ADS-B
Thu 03:44:59 PM 42.7330 -85.7950 257° West 444 511 26,200 -2,471 Descending FlightAware ADS-B
Thu 03:45:40 PM 42.7130 -85.9080 256° West 442 509 24,400 -2,308 Descending FlightAware ADS-B
Thu 03:46:17 PM 42.6960 -86.0030 256° West 433 498 23,200 -2,169 Descending FlightAware ADS-B
Thu 03:47:03 PM 42.6730 -86.1240 256° West 425 489 21,400 -2,163 Descending FlightAware ADS-B
Thu 03:47:43 PM 42.6540 -86.2270 256° West 428 493 20,100 -1,063 Descending FlightAware ADS-B
Thu 03:48:22 PM 42.6350 -86.3310 256° West 424 488 20,000 -558 Descending FlightAware ADS-B
Thu 03:49:09 PM 42.6130 -86.4490 256° West 409 471 19,300 -1,483 Descending FlightAware ADS-B
Thu 03:49:51 PM 42.5930 -86.5530 255° West 399 459 17,800 -2,071 Descending FlightAware ADS-B
Thu 03:51:02 PM 42.5610 -86.7170 255° West 389 448 15,400 -1,429 Descending FlightAware ADS-B
Thu 03:51:36 PM 42.5440 -86.7890 252° West 389 448 15,300 -434 Descending FlightAware ADS-B
Thu 03:52:25 PM 42.5100 -86.9100 249° West 384 442 14,800 -1,319 Descending FlightAware ADS-B
Thu 03:53:07 PM 42.4860 -86.9990 250° West 382 440 13,300 -2,175 Descending FlightAware ADS-B
Thu 03:53:45 PM 42.4620 -87.0880 250° West 376 433 11,900 -2,122 Descending FlightAware ADS-B
Thu 03:54:29 PM 42.4360 -87.1820 249° West 370 426 10,400 -1,579 Descending FlightAware ADS-B
Thu 03:55:01 PM 42.4170 -87.2510 250° West 353 406 9,900 -682 Descending FlightAware ADS-B
Thu 03:55:13 PM 42.4090 -87.2790 249° West 353 406 9,900  Level FlightAware ADS-B
Thu 03:56:21 PM 42.3710 -87.4180 250° West 353 406 9,900  Level FlightAware ADS-B
Thu 03:56:51 PM 42.3530 -87.4810 249° West 353 406 9,900  Level FlightAware ADS-B
Thu 03:57:03 PM 42.3470 -87.5020 249° West 354 407 9,900  Level FlightAware ADS-B
Thu 03:57:35 PM 42.3120 -87.5630 232° Southwest 372 428 9,900  Level FlightAware ADS-B
Thu 03:58:01 PM 42.2780 -87.5990 218° Southwest 371 427 9,900  Level FlightAware ADS-B
Thu 03:58:26 PM 42.2460 -87.6330 218° Southwest 373 429 9,900 107 Level FlightAware ADS-B
Thu 03:58:57 PM 42.2040 -87.6770 218° Southwest 339 390 10,000 -98 Climbing FlightAware ADS-B
Thu 03:59:27 PM 42.1680 -87.7140 217° Southwest 313 360 9,800 -500 Descending FlightAware ADS-B
Thu 03:59:33 PM 42.1610 -87.7210 217° Southwest 311 358 9,700 -1,263 Descending FlightAware ADS-B
Thu 04:00:05 PM 42.1260 -87.7590 219° Southwest 308 354 9,000 -1,375 Descending FlightAware ADS-B
Thu 04:00:21 PM 42.1080 -87.7790 220° Southwest 302 348 8,600 -1,385 Descending FlightAware ADS-B
Thu 04:00:31 PM 42.0990 -87.7950 233° Southwest 291 335 8,400 -474 Descending FlightAware ADS-B
Thu 04:00:59 PM 42.0870 -87.8300 245° Southwest 273 314 8,300 -500 Descending FlightAware ADS-B
Thu 04:01:31 PM 42.0670 -87.8830 243° Southwest 253 291 7,900 -677 Descending FlightAware ADS-B
Thu 04:02:01 PM 42.0610 -87.9210 258° West 236 272 7,600 -609 Descending FlightAware ADS-B
Thu 04:02:40 PM 42.0540 -87.9770 260° West 211 243 7,200 -618 Descending FlightAware ADS-B
Thu 04:03:09 PM 42.0500 -88.0130 262° West 192 221 6,900 -439 Descending FlightAware ADS-B
Thu 04:03:21 PM 42.0480 -88.0270 259° West 193 222 6,900  Level FlightAware ADS-B
Thu 04:03:50 PM 42.0440 -88.0610 261° West 190 219 6,900 100 Level FlightAware ADS-B
Thu 04:04:21 PM 42.0400 -88.0980 262° West 189 217 7,000 103 Climbing FlightAware ADS-B
Thu 04:04:48 PM 42.0360 -88.1300 260° West 186 214 7,000 -95 Level FlightAware ADS-B
Thu 04:05:24 PM 42.0360 -88.1730 270° West 184 212 6,900  Descending FlightAware ADS-B
Thu 04:05:55 PM 42.0370 -88.2070 272° West 188 216 7,000 105 Climbing FlightAware ADS-B
Thu 04:06:21 PM 42.0380 -88.2370 273° West 190 219 7,000  Level FlightAware ADS-B
Thu 04:06:51 PM 42.0390 -88.2730 272° West 191 220 7,000  Level FlightAware ADS-B
Thu 04:07:09 PM 42.0400 -88.2950 274° West 198 228 7,000 -136 Level FlightAware ADS-B
Thu 04:07:35 PM 42.0400 -88.3270 270° West 199 229 6,900 -111 Descending FlightAware ADS-B
Thu 04:08:03 PM 42.0410 -88.3580 272° West 200 230 6,900 103 Level FlightAware ADS-B
Thu 04:08:33 PM 42.0240 -88.3900 234° Southwest 216 249 7,000 154 Climbing FlightAware ADS-B
Thu 04:08:42 PM 42.0140 -88.3920 188° South 220 253 7,000 -1,000 Level FlightAware ADS-B
Thu 04:09:15 PM 41.9880 -88.3680 146° Southeast 210 242 6,300 -1,180 Descending FlightAware ADS-B
Thu 04:09:43 PM 41.9780 -88.3340 112° Southeast 206 237 5,800 -857 Descending FlightAware ADS-B
Thu 04:10:11 PM 41.9690 -88.3010 110° East 196 226 5,500 -750 Descending FlightAware ADS-B
Thu 04:10:23 PM 41.9670 -88.2870 101° East 194 223 5,300 -714 Descending FlightAware ADS-B
Thu 04:10:53 PM 41.9680 -88.2640 87° East 190 219 5,000 -444 Descending FlightAware ADS-B
Thu 04:11:17 PM 41.9680 -88.2230 90° East 196 226 4,900 -778 Descending FlightAware ADS-B
Thu 04:11:47 PM 41.9680 -88.1860 90° East 198 228 4,300 -1,149 Descending FlightAware ADS-B
Thu 04:12:04 PM 41.9680 -88.1660 90° East 200 230 4,000 -1,071 Descending FlightAware ADS-B
Thu 04:12:43 PM 41.9680 -88.1190 90° East 196 226 3,300 -1,029 Descending FlightAware ADS-B
Thu 04:13:14 PM 41.9690 -88.0790 88° East 197 227 2,800 -1,000 Descending FlightAware ADS-B
Thu 04:13:37 PM 41.9690 -88.0520 90° East 176 203 2,400 -941 Descending FlightAware ADS-B
Thu 04:14:05 PM 41.9690 -88.0240 90° East 155 178 2,000 -750 Descending FlightAware ADS-B
Thu 04:14:33 PM 41.9690 -87.9990 90° East 143 165 1,700 -787 Descending FlightAware ADS-B
Thu 04:15:06 PM 41.9690 -87.9690 90° East 147 169 1,200 -857 Descending FlightAware ADS-B
Thu 04:15:29 PM 41.9690 -87.9480 90° East 149 171 900 -500 Descending FlightAware ADS-B
Thu 04:15:54 PM 41.9690 -87.9420 90° East 148 170 800 -118 Descending FlightAware ADS-B
Thu 04:16:20 PM 41.9690 -87.9210 90° East 148 170 800  Level FlightAware ADS-B

Login

Don't have an account? Register now (free) for customized features, flight alerts, and more!